San Luis Obispo (SBP/KSBP)

Map

Destinations

Information

Location
San Luis Obispo, CA
Local Time
20:36 / 8:36 pm
GMT Time
03:36 / 3:36 am
Gates
3
No FAA reported delays
METAR KSBP 260304Z AUTO 19005KT 10SM SCT012 OVC020 15/11 A2986 RMK AO2 T01500111
TAF KSBP 260312Z 2603/2624 VRB03KT P6SM OVC020 FM261100 15005KT P6SM BKN022 OVC040 FM261900 25009KT P6SM SCT025 SCT040